Time;durP1;ratioP1;P1;durP2;ratioP2;P2;SDS_P1;SDS_P2;PMS_P1;PMS_P2;Temp;Humidity;BMP_temperature;BMP_pressure;BME280_temperature;BME280_humidity;BME280_pressure;Samples;Min_cycle;Max_cycle;Signal;HPM_P1;HPM_P2
2023/02/09 00:02:05;;;;;;;51.03;25.52;;;-3274.20;88.60;;;;;;4987874;28;20030;-72
2023/02/09 00:04:33;;;;;;;53.30;24.92;;;-3274.20;88.70;;;;;;4992219;28;20046;-72
2023/02/09 00:07:02;;;;;;;55.50;25.85;;;-3274.20;88.70;;;;;;4991274;28;20022;-72
2023/02/09 00:09:28;;;;;;;47.97;24.10;;;-3274.20;88.70;;;;;;4986792;28;20117;-71
2023/02/09 00:14:37;;;;;;;55.28;25.17;;;-3274.10;89.00;;;;;;4979404;28;20053;-72
2023/02/09 00:17:04;;;;;;;50.03;25.23;;;-3274.10;89.00;;;;;;4988002;28;20030;-71
2023/02/09 00:19:30;;;;;;;54.55;25.95;;;-3274.10;89.10;;;;;;4990950;28;20042;-72
2023/02/09 00:21:56;;;;;;;53.22;25.30;;;-3274.20;89.10;;;;;;4992102;28;20483;-71
2023/02/09 00:24:22;;;;;;;51.83;23.55;;;-3274.20;88.90;;;;;;4991451;28;20038;-71
2023/02/09 00:26:48;;;;;;;54.40;25.13;;;-3274.20;88.90;;;;;;4989888;28;20050;-72
2023/02/09 00:29:14;;;;;;;54.95;26.60;;;-3274.20;88.80;;;;;;4991932;28;20034;-71
2023/02/09 00:31:40;;;;;;;52.08;24.17;;;-3274.20;89.00;;;;;;5000858;28;20034;-72
2023/02/09 00:34:06;;;;;;;52.22;25.38;;;-3274.20;89.00;;;;;;4993804;28;20041;-72
2023/02/09 00:36:31;;;;;;;51.08;26.27;;;-3274.20;89.00;;;;;;4989409;28;20038;-72
2023/02/09 00:38:58;;;;;;;57.65;26.17;;;-3274.20;89.00;;;;;;4986997;28;20030;-71
2023/02/09 00:44:11;;;;;;;56.40;26.20;;;-3274.20;88.70;;;;;;4989236;28;20449;-74
2023/02/09 00:46:37;;;;;;;58.40;25.63;;;-3274.20;88.80;;;;;;4994981;28;20447;-72
2023/02/09 00:49:03;;;;;;;47.03;25.08;;;-3274.30;88.60;;;;;;4995441;28;20039;-73
2023/02/09 00:51:29;;;;;;;52.42;25.80;;;-3274.20;88.60;;;;;;4998730;28;20391;-73
2023/02/09 00:53:54;;;;;;;55.28;26.58;;;-3274.30;88.70;;;;;;4990568;28;20038;-72
2023/02/09 00:56:20;;;;;;;54.83;25.45;;;-3274.20;88.60;;;;;;4991654;28;20146;-72
2023/02/09 00:58:45;;;;;;;57.50;24.90;;;-3274.20;88.50;;;;;;4994116;28;20034;-72
2023/02/09 01:01:12;;;;;;;54.35;25.33;;;-3274.20;88.80;;;;;;4989557;28;20157;-73
2023/02/09 01:03:41;;;;;;;48.05;23.38;;;-3274.20;88.70;;;;;;4989194;28;20044;-72
2023/02/09 01:06:07;;;;;;;51.28;25.10;;;-3274.10;88.60;;;;;;4989334;28;20026;-71
2023/02/09 01:08:33;;;;;;;49.78;25.80;;;-3274.20;88.60;;;;;;4988932;28;20181;-73
2023/02/09 01:10:59;;;;;;;52.05;26.13;;;-3274.20;88.60;;;;;;4993376;28;20132;-77
2023/02/09 01:13:24;;;;;;;52.33;25.33;;;-3274.30;88.40;;;;;;4984209;28;20079;-74
2023/02/09 01:15:50;;;;;;;48.33;24.92;;;-3274.20;88.40;;;;;;4995389;28;20383;-74
2023/02/09 01:18:16;;;;;;;51.15;23.48;;;-3274.10;88.60;;;;;;4979412;28;20462;-73
2023/02/09 01:20:42;;;;;;;51.20;26.65;;;-3274.20;88.90;;;;;;4979183;28;20045;-73
2023/02/09 01:23:09;;;;;;;47.40;25.20;;;-3274.20;88.80;;;;;;4991135;28;20046;-72
2023/02/09 01:25:34;;;;;;;48.42;24.42;;;-3274.10;88.50;;;;;;4988248;28;20031;-72
2023/02/09 01:28:00;;;;;;;47.97;23.38;;;-3274.10;88.70;;;;;;4975521;28;20065;-72
2023/02/09 01:30:26;;;;;;;55.70;25.60;;;-3274.10;88.80;;;;;;4976775;28;20113;-71
2023/02/09 01:32:51;;;;;;;48.17;22.92;;;-3274.00;88.90;;;;;;4993359;28;20034;-74
2023/02/09 01:35:17;;;;;;;49.83;24.80;;;-3274.00;89.10;;;;;;4992073;28;20041;-72
2023/02/09 01:37:42;;;;;;;48.92;24.05;;;-3274.00;89.10;;;;;;4981776;28;20046;-74
2023/02/09 01:40:09;;;;;;;47.35;23.83;;;-3274.10;89.00;;;;;;4979373;28;20041;-72
2023/02/09 01:42:35;;;;;;;48.13;23.80;;;-3274.10;88.80;;;;;;4992261;28;20368;-72
2023/02/09 01:45:18;;;;;;;44.53;23.25;;;-3274.00;88.90;;;;;;4991665;28;20502;-72
2023/02/09 01:47:49;;;;;;;47.33;23.40;;;-3274.10;88.80;;;;;;4990341;28;20474;-72
2023/02/09 01:50:15;;;;;;;45.42;23.27;;;-3274.10;88.50;;;;;;4989398;28;20471;-72
2023/02/09 01:52:42;;;;;;;42.95;22.73;;;-3274.00;88.60;;;;;;4983777;28;20038;-73
2023/02/09 01:55:13;;;;;;;46.55;22.23;;;-3274.00;88.60;;;;;;4997787;28;20037;-72
2023/02/09 01:57:54;;;;;;;47.53;22.00;;;-3274.00;88.70;;;;;;4990894;28;20047;-73
2023/02/09 02:00:21;;;;;;;43.63;20.17;;;-3273.90;88.80;;;;;;4988549;28;20164;-72
2023/02/09 02:03:02;;;;;;;41.40;21.80;;;-3274.00;88.90;;;;;;4992317;28;20022;-72
2023/02/09 02:05:29;;;;;;;44.65;21.08;;;-3274.00;88.80;;;;;;4987764;28;20511;-71
2023/02/09 02:08:06;;;;;;;47.55;24.05;;;-3274.00;88.70;;;;;;4994269;28;20093;-71
2023/02/09 02:10:32;;;;;;;42.90;21.08;;;-3274.00;88.50;;;;;;4997108;28;20062;-72
2023/02/09 02:12:58;;;;;;;42.67;21.13;;;-3274.00;88.60;;;;;;4988959;28;20463;-72
2023/02/09 02:15:31;;;;;;;38.92;21.70;;;-3273.90;88.60;;;;;;4993332;28;20502;-71
2023/02/09 02:18:16;;;;;;;42.90;20.60;;;-3273.90;88.80;;;;;;4993938;28;20046;-72
2023/02/09 02:21:23;;;;;;;47.70;21.70;;;-3273.90;88.90;;;;;;5006420;28;20468;-72
2023/02/09 02:24:26;;;;;;;44.35;20.95;;;-3274.00;88.80;;;;;;4981126;28;20048;-72
2023/02/09 02:27:00;;;;;;;40.65;20.48;;;-3274.00;88.60;;;;;;4992625;28;20054;-73
2023/02/09 02:29:29;;;;;;;42.88;19.73;;;-3273.90;88.60;;;;;;4993896;28;20035;-72
2023/02/09 02:32:13;;;;;;;44.67;21.48;;;-3274.00;88.60;;;;;;4993308;28;20093;-72
2023/02/09 02:35:13;;;;;;;41.85;19.58;;;-3274.00;88.40;;;;;;4988015;28;20138;-73
2023/02/09 02:37:58;;;;;;;50.33;21.05;;;-3274.00;88.60;;;;;;4987372;28;20042;-74
2023/02/09 02:40:46;;;;;;;46.20;21.98;;;-3274.00;88.60;;;;;;4988183;28;20100;-72
2023/02/09 02:43:20;;;;;;;40.60;20.27;;;-3274.00;88.60;;;;;;4987862;28;20046;-73
2023/02/09 02:46:12;;;;;;;40.88;20.60;;;-3274.00;88.30;;;;;;4987836;28;20530;-72
2023/02/09 02:49:01;;;;;;;42.92;19.48;;;-3274.00;88.20;;;;;;4985086;28;20601;-73
2023/02/09 02:51:40;;;;;;;44.00;19.90;;;-3274.00;88.20;;;;;;4985300;28;20061;-72
2023/02/09 02:54:10;;;;;;;44.00;20.25;;;-3274.00;88.20;;;;;;4983472;28;21646;-72
2023/02/09 02:56:40;;;;;;;42.80;20.73;;;-3274.10;88.20;;;;;;4988717;28;20490;-73
2023/02/09 02:59:11;;;;;;;44.83;21.20;;;-3274.10;88.10;;;;;;4985447;28;20098;-74
2023/02/09 03:01:42;;;;;;;44.30;20.50;;;-3274.10;88.10;;;;;;4982905;28;20038;-72
2023/02/09 03:04:10;;;;;;;39.97;20.63;;;-3274.10;88.10;;;;;;4985711;28;20053;-72
2023/02/09 03:06:37;;;;;;;40.08;20.25;;;-3274.10;87.80;;;;;;4985616;28;20541;-73
2023/02/09 03:09:03;;;;;;;35.88;18.85;;;-3274.20;87.70;;;;;;4992558;28;20129;-71
2023/02/09 03:12:04;;;;;;;37.05;18.88;;;-3274.30;87.50;;;;;;4992128;28;20475;-71
2023/02/09 03:14:41;;;;;;;;;;;-3274.20;87.50;;;;;;4986292;28;20053;-75
2023/02/09 03:17:32;;;;;;;35.65;16.70;;;-3274.30;87.40;;;;;;4991018;28;19913;-74
2023/02/09 03:20:09;;;;;;;39.60;17.55;;;-3274.20;87.30;;;;;;4989917;28;20038;-73
2023/02/09 03:22:40;;;;;;;38.17;17.33;;;-3274.10;87.40;;;;;;4988942;28;20030;-73
2023/02/09 03:25:32;;;;;;;35.20;19.52;;;-3274.20;87.30;;;;;;4992760;28;20409;-74
2023/02/09 03:28:06;;;;;;;33.00;17.77;;;-3274.30;87.10;;;;;;4990210;28;20046;-73
2023/02/09 03:30:34;;;;;;;36.47;18.85;;;-3274.40;86.70;;;;;;4992439;28;20448;-74
2023/02/09 03:33:02;;;;;;;33.85;17.20;;;-3274.40;86.50;;;;;;4985986;28;20026;-73
2023/02/09 03:35:36;;;;;;;39.85;18.55;;;-3274.30;86.50;;;;;;4992199;28;20475;-73
2023/02/09 03:38:06;;;;;;;35.38;16.77;;;-3274.30;86.60;;;;;;4988971;28;20453;-74
2023/02/09 03:40:32;;;;;;;39.67;19.63;;;-3274.40;86.50;;;;;;4992588;28;20038;-73
2023/02/09 03:42:58;;;;;;;36.92;17.13;;;-3274.30;86.40;;;;;;4986966;28;20117;-73
2023/02/09 03:45:24;;;;;;;32.30;17.15;;;-3274.30;86.10;;;;;;4995923;28;20030;-73
2023/02/09 03:47:49;;;;;;;34.38;16.90;;;-3274.30;86.00;;;;;;4997420;28;20057;-73
2023/02/09 03:50:15;;;;;;;29.02;15.85;;;-3274.30;86.10;;;;;;4991634;28;20034;-73
2023/02/09 03:52:40;;;;;;;34.45;16.88;;;-3274.40;85.80;;;;;;4987622;28;20455;-73
2023/02/09 03:55:06;;;;;;;30.70;17.05;;;-3274.40;85.70;;;;;;4995960;28;20087;-73
2023/02/09 03:57:32;;;;;;;33.90;16.88;;;-3274.60;84.70;;;;;;4998971;28;20184;-73
2023/02/09 03:59:57;;;;;;;29.88;15.60;;;-3274.50;85.10;;;;;;4997561;28;20084;-73
2023/02/09 04:02:23;;;;;;;30.67;14.63;;;-3274.50;84.90;;;;;;5001683;28;20048;-73
2023/02/09 04:04:49;;;;;;;37.70;16.63;;;-3274.60;84.60;;;;;;4996603;28;20034;-73
2023/02/09 04:07:14;;;;;;;31.05;15.48;;;-3274.70;84.00;;;;;;5003830;28;20458;-73
2023/02/09 04:09:40;;;;;;;31.45;15.07;;;-3274.60;83.90;;;;;;4996740;28;20034;-72
2023/02/09 04:12:05;;;;;;;29.45;14.70;;;-3274.70;84.10;;;;;;4990280;28;20045;-75
2023/02/09 04:14:31;;;;;;;33.33;16.15;;;-3274.60;83.90;;;;;;4984417;28;20535;-74
2023/02/09 04:16:56;;;;;;;36.67;16.95;;;-3274.60;84.00;;;;;;4990132;28;20037;-74
2023/02/09 04:19:22;;;;;;;28.55;13.15;;;-3274.70;83.90;;;;;;4992826;28;20038;-73
2023/02/09 04:21:47;;;;;;;28.50;13.63;;;-3274.60;83.90;;;;;;4988812;28;20035;-74
2023/02/09 04:24:13;;;;;;;29.48;14.38;;;-3274.60;83.90;;;;;;4987238;28;20050;-73
2023/02/09 04:26:38;;;;;;;29.33;14.40;;;-3274.60;83.90;;;;;;4991912;28;20110;-74
2023/02/09 04:29:04;;;;;;;29.30;14.20;;;-3274.70;83.70;;;;;;4982483;28;20035;-73
2023/02/09 04:31:30;;;;;;;31.10;14.32;;;-3274.80;83.70;;;;;;4998826;28;20471;-74
2023/02/09 04:33:55;;;;;;;31.48;14.05;;;-3274.70;83.50;;;;;;4991823;28;20041;-74
2023/02/09 04:36:22;;;;;;;31.08;14.73;;;-3274.70;83.80;;;;;;4994478;28;20045;-73
2023/02/09 04:38:47;;;;;;;29.63;14.38;;;-3274.70;83.90;;;;;;4989189;28;20089;-72
2023/02/09 04:41:13;;;;;;;24.45;11.63;;;-3274.70;83.70;;;;;;4992017;28;20470;-73
2023/02/09 04:43:38;;;;;;;24.08;13.68;;;-3274.80;83.40;;;;;;4991232;28;20169;-73
2023/02/09 04:46:04;;;;;;;28.45;13.43;;;-3274.70;83.40;;;;;;4994623;28;20038;-73
2023/02/09 04:48:29;;;;;;;31.13;14.20;;;-3274.70;83.40;;;;;;4991493;28;20026;-73
2023/02/09 04:50:55;;;;;;;27.33;13.73;;;-3274.70;83.50;;;;;;4994993;28;20030;-73
2023/02/09 04:53:21;;;;;;;27.27;13.13;;;-3274.70;83.20;;;;;;4991827;28;20045;-75
2023/02/09 04:55:47;;;;;;;27.20;13.90;;;-3274.70;83.20;;;;;;4994840;28;20042;-73
2023/02/09 05:01:00;;;;;;;26.02;13.32;;;-3274.70;83.00;;;;;;4990502;28;20030;-73
2023/02/09 05:03:26;;;;;;;25.80;12.98;;;-3274.80;82.90;;;;;;4991705;28;20654;-73
2023/02/09 05:05:56;;;;;;;26.75;13.23;;;-3274.80;82.50;;;;;;4992918;28;20109;-74
2023/02/09 05:08:23;;;;;;;27.27;14.00;;;-3274.80;82.60;;;;;;4990848;28;20399;-73
2023/02/09 05:10:52;;;;;;;28.35;13.40;;;-3274.80;82.10;;;;;;4979845;28;20475;-73
2023/02/09 05:13:19;;;;;;;25.85;12.63;;;-3274.80;82.30;;;;;;4995605;28;20116;-73
2023/02/09 05:15:45;;;;;;;22.98;11.52;;;-3274.70;82.30;;;;;;4987752;28;20678;-73
2023/02/09 05:18:12;;;;;;;23.27;11.85;;;-3274.70;82.80;;;;;;4990292;28;20038;-75
2023/02/09 05:20:37;;;;;;;28.20;12.75;;;-3274.80;82.20;;;;;;4990110;28;20031;-72
2023/02/09 05:23:04;;;;;;;26.00;13.38;;;-3274.70;82.30;;;;;;4988019;28;20025;-75
2023/02/09 05:25:29;;;;;;;26.33;12.15;;;-3274.80;82.40;;;;;;4987325;28;20112;-74
2023/02/09 05:27:55;;;;;;;24.55;12.00;;;-3274.70;82.40;;;;;;4987257;28;20077;-75
2023/02/09 05:30:20;;;;;;;23.63;12.27;;;-3274.70;82.40;;;;;;4989410;28;20031;-68
2023/02/09 05:32:46;;;;;;;22.95;11.80;;;-3274.70;82.50;;;;;;4981516;28;20034;-66
2023/02/09 05:35:13;;;;;;;28.25;11.82;;;-3274.80;82.30;;;;;;4983525;28;21474;-66
2023/02/09 05:37:38;;;;;;;21.80;11.43;;;-3274.80;82.20;;;;;;4988864;28;20484;-67
2023/02/09 05:40:04;;;;;;;25.02;12.77;;;-3274.80;82.00;;;;;;4985969;28;20073;-65
2023/02/09 05:42:30;;;;;;;23.00;12.38;;;-3274.80;81.50;;;;;;4989915;28;20061;-65
2023/02/09 05:44:55;;;;;;;25.10;11.90;;;-3274.80;81.60;;;;;;4985076;28;20479;-66
2023/02/09 05:47:23;;;;;;;23.70;11.68;;;-3274.80;82.00;;;;;;4988319;28;20172;-68
2023/02/09 05:49:49;;;;;;;26.25;12.20;;;-3274.80;81.90;;;;;;4988310;28;20033;-65
2023/02/09 05:52:15;;;;;;;24.00;12.30;;;-3274.80;81.90;;;;;;4985725;28;20070;-65
2023/02/09 05:54:41;;;;;;;21.27;11.45;;;-3274.70;82.10;;;;;;4985836;28;20918;-65
2023/02/09 05:57:07;;;;;;;24.17;11.63;;;-3274.70;82.10;;;;;;4988586;28;20038;-67
2023/02/09 05:59:32;;;;;;;21.15;11.55;;;-3274.80;81.80;;;;;;4986231;28;20030;-67
2023/02/09 06:01:58;;;;;;;21.75;11.38;;;-3274.70;81.70;;;;;;4987721;28;20042;-65
2023/02/09 06:04:24;;;;;;;19.35;10.25;;;-3274.80;81.50;;;;;;4993795;28;20046;-65
2023/02/09 06:06:51;;;;;;;20.88;11.38;;;-3274.90;80.90;;;;;;4989996;28;20042;-66
2023/02/09 06:09:16;;;;;;;25.00;12.30;;;-3274.90;81.20;;;;;;4981379;28;20035;-65
2023/02/09 06:11:42;;;;;;;22.48;11.93;;;-3274.80;81.20;;;;;;4980887;28;20045;-65
2023/02/09 06:14:07;;;;;;;23.70;12.20;;;-3274.70;81.70;;;;;;4987461;28;20026;-65
2023/02/09 06:16:33;;;;;;;21.23;10.70;;;-3274.70;82.00;;;;;;4991625;28;20030;-65
2023/02/09 06:18:58;;;;;;;21.98;11.10;;;-3274.60;82.10;;;;;;4992125;28;20089;-63
2023/02/09 06:21:24;;;;;;;23.83;11.75;;;-3274.70;82.20;;;;;;4989076;28;20108;-65
2023/02/09 06:23:49;;;;;;;26.25;11.93;;;-3274.70;82.00;;;;;;4988903;28;20048;-65
2023/02/09 06:26:16;;;;;;;20.67;10.63;;;-3274.60;82.20;;;;;;4991392;28;20383;-66
2023/02/09 06:28:42;;;;;;;24.63;12.18;;;-3274.70;81.80;;;;;;4988354;28;20061;-65
2023/02/09 06:31:08;;;;;;;21.60;10.90;;;-3274.70;81.80;;;;;;4988918;28;20042;-65
2023/02/09 06:33:35;;;;;;;23.02;12.05;;;-3274.70;81.80;;;;;;5000202;28;20052;-65
2023/02/09 06:36:01;;;;;;;22.88;11.15;;;-3274.70;81.80;;;;;;4981667;28;20069;-72
2023/02/09 06:38:30;;;;;;;19.55;10.65;;;-3274.70;81.60;;;;;;4985630;28;20042;-65
2023/02/09 06:40:56;;;;;;;25.42;11.55;;;-3274.60;81.90;;;;;;4988856;28;20045;-65
2023/02/09 06:43:21;;;;;;;22.70;12.25;;;-3274.70;82.10;;;;;;4991006;28;20046;-66
2023/02/09 06:45:47;;;;;;;23.67;11.43;;;-3274.70;82.10;;;;;;4988725;28;20125;-68
2023/02/09 06:48:12;;;;;;;20.70;10.98;;;-3274.60;82.40;;;;;;4985134;28;20056;-65
2023/02/09 06:50:39;;;;;;;22.95;11.35;;;-3274.60;82.50;;;;;;4992588;28;20480;-65
2023/02/09 06:53:04;;;;;;;21.67;10.90;;;-3274.60;82.10;;;;;;4975189;28;20033;-66
2023/02/09 06:55:31;;;;;;;24.63;12.18;;;-3274.60;82.30;;;;;;4990551;28;20035;-65
2023/02/09 06:57:56;;;;;;;23.10;11.35;;;-3274.60;82.30;;;;;;4990584;28;20092;-65
2023/02/09 07:00:23;;;;;;;21.38;10.27;;;-3274.60;82.40;;;;;;4990056;28;20034;-66
2023/02/09 07:02:48;;;;;;;18.98;11.13;;;-3274.60;82.70;;;;;;4991661;28;20455;-65
2023/02/09 07:05:15;;;;;;;27.27;12.93;;;-3274.50;82.60;;;;;;4990287;28;20038;-67
2023/02/09 07:07:42;;;;;;;27.42;12.27;;;-3274.50;82.60;;;;;;4995491;28;20084;-66
2023/02/09 07:10:09;;;;;;;24.23;11.40;;;-3274.70;82.00;;;;;;4991861;28;20073;-67
2023/02/09 07:12:34;;;;;;;24.02;11.80;;;-3274.70;82.00;;;;;;4978829;28;20029;-65
2023/02/09 07:15:00;;;;;;;24.30;11.35;;;-3274.70;82.20;;;;;;4988665;28;20038;-65
2023/02/09 07:17:29;;;;;;;21.98;11.10;;;-3274.70;81.80;;;;;;4989769;28;20042;-65
2023/02/09 07:19:55;;;;;;;21.02;11.57;;;-3274.70;81.90;;;;;;4988691;28;20034;-65
2023/02/09 07:22:21;;;;;;;23.23;11.57;;;-3274.70;81.60;;;;;;4979747;28;20026;-65
2023/02/09 07:24:47;;;;;;;19.90;10.82;;;-3274.70;81.80;;;;;;4988802;28;20038;-65
2023/02/09 07:27:14;;;;;;;21.80;10.80;;;-3274.80;81.40;;;;;;4989329;28;20514;-66
2023/02/09 07:29:39;;;;;;;22.48;10.93;;;-3274.80;81.50;;;;;;4989174;28;20026;-68
2023/02/09 07:32:06;;;;;;;24.35;10.18;;;-3274.80;81.30;;;;;;4987644;28;20038;-69
2023/02/09 07:34:32;;;;;;;20.63;10.15;;;-3274.80;81.50;;;;;;4992016;28;20040;-69
2023/02/09 07:36:57;;;;;;;20.50;9.35;;;-3274.80;81.40;;;;;;4994999;28;20045;-65
2023/02/09 07:39:23;;;;;;;17.23;9.30;;;-3274.90;81.40;;;;;;4995121;28;20035;-66
2023/02/09 07:41:48;;;;;;;17.65;9.55;;;-3274.90;81.10;;;;;;4995987;28;20064;-65
2023/02/09 07:44:14;;;;;;;16.55;9.27;;;-3274.90;80.80;;;;;;4990563;28;20467;-65
2023/02/09 07:46:40;;;;;;;18.23;9.75;;;-3275.00;80.00;;;;;;4996061;28;20038;-65
2023/02/09 07:49:05;;;;;;;17.58;9.70;;;-3275.10;80.10;;;;;;4992523;28;20036;-65
2023/02/09 07:51:31;;;;;;;20.08;10.15;;;-3275.10;79.80;;;;;;4995111;28;20034;-66
2023/02/09 07:53:58;;;;;;;21.42;10.23;;;-3275.20;79.50;;;;;;4992643;28;20030;-65
2023/02/09 07:56:25;;;;;;;17.67;8.68;;;-3275.20;79.20;;;;;;4986387;28;20069;-66
2023/02/09 07:58:50;;;;;;;18.40;9.80;;;-3275.20;79.10;;;;;;4987387;28;20041;-66
2023/02/09 08:01:16;;;;;;;17.52;8.18;;;-3275.30;79.20;;;;;;4992253;28;20029;-65
2023/02/09 08:03:45;;;;;;;19.70;9.75;;;-3275.30;78.70;;;;;;4992153;28;20030;-66
2023/02/09 08:06:33;;;;;;;18.05;9.20;;;-3275.30;78.50;;;;;;4985242;28;20073;-66
2023/02/09 08:09:02;;;;;;;17.67;8.25;;;-3275.30;79.00;;;;;;4980802;28;20041;-69
2023/02/09 08:11:34;;;;;;;17.23;8.85;;;-3275.40;78.70;;;;;;4982832;28;20050;-65
2023/02/09 08:14:03;;;;;;;20.15;10.00;;;-3275.40;78.90;;;;;;4990803;28;20030;-65
2023/02/09 08:16:32;;;;;;;16.83;8.50;;;-3275.50;78.40;;;;;;4988055;28;20056;-65
2023/02/09 08:19:00;;;;;;;18.65;9.70;;;-3275.50;78.10;;;;;;4988205;28;20524;-65
2023/02/09 08:21:30;;;;;;;17.38;8.40;;;-3275.50;78.00;;;;;;4997222;28;20037;-65
2023/02/09 08:23:58;;;;;;;18.27;8.60;;;-3275.60;77.90;;;;;;4992465;28;20065;-66
2023/02/09 08:26:24;;;;;;;19.88;8.93;;;-3275.70;78.30;;;;;;4997599;28;20034;-65
2023/02/09 08:28:51;;;;;;;17.33;8.95;;;-3275.70;78.00;;;;;;5001117;28;20026;-65
2023/02/09 08:31:19;;;;;;;17.98;8.20;;;-3275.70;77.90;;;;;;5001368;28;20034;-66
2023/02/09 08:33:46;;;;;;;18.23;8.43;;;-3275.70;77.50;;;;;;4995999;28;20038;-65
2023/02/09 08:36:14;;;;;;;19.88;8.35;;;-3275.80;77.30;;;;;;4993124;28;20049;-66
2023/02/09 08:38:40;;;;;;;17.33;8.88;;;-3275.90;76.80;;;;;;4986795;28;20038;-65
2023/02/09 08:41:08;;;;;;;15.52;8.13;;;-3276.00;77.40;;;;;;4992656;28;20027;-65
2023/02/09 08:43:35;;;;;;;14.80;7.93;;;-3276.00;76.80;;;;;;4986520;28;20063;-67
2023/02/09 08:46:06;;;;;;;14.43;8.10;;;-3276.10;77.00;;;;;;4997124;28;20023;-65
2023/02/09 08:48:33;;;;;;;17.90;8.32;;;-3276.20;77.00;;;;;;4989944;28;20042;-65
2023/02/09 08:50:59;;;;;;;20.33;8.80;;;-3276.30;76.80;;;;;;4990091;28;20019;-65
2023/02/09 08:53:26;;;;;;;17.00;8.65;;;-3276.30;76.10;;;;;;4992562;28;20037;-66
2023/02/09 08:55:52;;;;;;;16.38;8.48;;;-3276.30;75.40;;;;;;4991597;28;20085;-65
2023/02/09 08:58:17;;;;;;;17.50;8.18;;;-3276.40;75.90;;;;;;5000876;28;20434;-65
2023/02/09 09:00:43;;;;;;;13.32;7.50;;;-3276.50;74.90;;;;;;4992611;28;20058;-65
2023/02/09 09:03:08;;;;;;;15.23;7.35;;;-3276.60;74.90;;;;;;4992615;28;20037;-68
2023/02/09 09:05:34;;;;;;;15.73;8.38;;;-3276.70;75.70;;;;;;4987367;28;20566;-66
2023/02/09 09:08:00;;;;;;;15.15;7.63;;;-3276.70;74.60;;;;;;4991641;28;20379;-66
2023/02/09 09:10:26;;;;;;;15.50;7.72;;;0.00;74.00;;;;;;4992937;28;20037;-67
2023/02/09 09:12:51;;;;;;;15.80;7.90;;;0.00;73.60;;;;;;4989223;28;20030;-66
2023/02/09 09:15:17;;;;;;;16.63;7.82;;;0.10;73.80;;;;;;4981214;28;20675;-65
2023/02/09 09:17:43;;;;;;;16.10;8.30;;;0.20;73.60;;;;;;4988147;28;20038;-65
2023/02/09 09:20:09;;;;;;;15.70;8.25;;;0.30;72.80;;;;;;4994244;28;20030;-66
2023/02/09 09:22:34;;;;;;;16.02;8.48;;;0.30;73.60;;;;;;4983990;28;20038;-65
2023/02/09 09:25:00;;;;;;;15.23;7.90;;;0.40;72.90;;;;;;4982262;28;20502;-64
2023/02/09 09:27:27;;;;;;;13.85;7.35;;;0.50;73.30;;;;;;4981561;28;20058;-64
2023/02/09 09:29:54;;;;;;;15.15;7.47;;;0.50;71.80;;;;;;4983034;28;20101;-64
2023/02/09 09:32:23;;;;;;;13.85;7.78;;;0.60;71.70;;;;;;4987162;28;20498;-64
2023/02/09 09:34:54;;;;;;;15.02;7.75;;;0.60;71.40;;;;;;4995410;28;20038;-67
2023/02/09 09:37:21;;;;;;;16.50;7.88;;;0.80;71.80;;;;;;4989947;28;20053;-64
2023/02/09 09:39:47;;;;;;;13.45;7.80;;;0.90;71.60;;;;;;4992721;28;20030;-67
2023/02/09 09:42:33;;;;;;;13.35;6.95;;;0.90;71.10;;;;;;4993392;28;20109;-65
2023/02/09 09:44:59;;;;;;;29.38;15.73;;;0.80;70.70;;;;;;4988780;28;20045;-64
2023/02/09 09:47:35;;;;;;;54.35;19.60;;;1.10;71.80;;;;;;4997844;28;20029;-64
2023/02/09 09:50:02;;;;;;;51.22;18.58;;;1.30;70.80;;;;;;4992513;28;20096;-64
2023/02/09 09:52:37;;;;;;;55.75;29.02;;;1.50;71.20;;;;;;4986290;28;20034;-65
2023/02/09 09:55:07;;;;;;;15.98;9.07;;;1.40;70.00;;;;;;4988503;28;20468;-64
2023/02/09 09:57:38;;;;;;;17.92;9.73;;;1.60;70.00;;;;;;4993185;28;20026;-65
2023/02/09 10:00:14;;;;;;;14.43;8.93;;;1.70;68.90;;;;;;4989000;28;20039;-64
2023/02/09 10:02:39;;;;;;;12.77;7.22;;;1.70;69.30;;;;;;4985011;28;20077;-64
2023/02/09 10:05:16;;;;;;;15.05;7.65;;;1.80;68.10;;;;;;4978801;28;20475;-65
2023/02/09 10:07:48;;;;;;;16.08;7.88;;;1.60;68.00;;;;;;4977132;28;20038;-66
2023/02/09 10:10:32;;;;;;;15.88;7.88;;;1.60;69.00;;;;;;4989224;28;20034;-65
2023/02/09 10:13:01;;;;;;;16.58;8.95;;;1.50;68.90;;;;;;4985974;28;20041;-64
2023/02/09 10:15:32;;;;;;;15.00;7.78;;;1.60;69.00;;;;;;4987308;28;20471;-64
2023/02/09 10:17:59;;;;;;;14.13;8.15;;;1.60;69.00;;;;;;4985382;28;20540;-65
2023/02/09 10:20:48;;;;;;;16.23;8.27;;;1.70;69.00;;;;;;4997294;28;20126;-64
2023/02/09 10:23:44;;;;;;;13.52;7.88;;;1.80;68.70;;;;;;4983615;28;20035;-65
2023/02/09 10:26:22;;;;;;;14.18;7.68;;;2.10;68.40;;;;;;4983615;28;20050;-65
2023/02/09 10:28:52;;;;;;;15.50;7.95;;;1.90;67.80;;;;;;4982612;28;20398;-64
2023/02/09 10:31:45;;;;;;;19.77;7.65;;;2.00;67.40;;;;;;4996496;28;20030;-64
2023/02/09 10:34:20;;;;;;;16.35;8.13;;;2.10;68.20;;;;;;4994549;28;20025;-64
2023/02/09 10:36:50;;;;;;;14.88;7.88;;;2.30;67.10;;;;;;4989993;28;20051;-65
2023/02/09 10:39:29;;;;;;;13.15;7.47;;;2.50;67.70;;;;;;4994305;28;20122;-65
2023/02/09 10:41:58;;;;;;;15.80;7.95;;;2.40;66.80;;;;;;4995876;28;20030;-64
2023/02/09 10:44:29;;;;;;;15.15;7.85;;;2.50;66.10;;;;;;4988617;28;20034;-67
2023/02/09 10:47:17;;;;;;;15.85;7.90;;;2.40;66.30;;;;;;4990702;28;20038;-64
2023/02/09 10:49:49;;;;;;;14.68;8.27;;;2.20;66.20;;;;;;4992349;28;20060;-64
2023/02/09 10:52:18;;;;;;;15.70;7.35;;;2.30;66.20;;;;;;4986435;28;20110;-64
2023/02/09 10:54:58;;;;;;;16.00;8.40;;;2.40;66.30;;;;;;4987038;28;20085;-67
2023/02/09 10:57:29;;;;;;;13.57;7.47;;;2.30;66.60;;;;;;4986612;28;20048;-64
2023/02/09 10:59:58;;;;;;;13.18;8.00;;;2.60;66.10;;;;;;5000964;28;20725;-64
2023/02/09 11:02:37;;;;;;;14.88;7.07;;;2.80;66.20;;;;;;4989869;28;20023;-64
2023/02/09 11:05:33;;;;;;;13.13;7.03;;;2.60;66.10;;;;;;4992093;28;20034;-65
2023/02/09 11:08:10;;;;;;;13.05;7.20;;;2.80;66.80;;;;;;4989794;28;20460;-65
2023/02/09 11:10:43;;;;;;;14.23;7.88;;;2.80;65.60;;;;;;4990218;28;20124;-64
2023/02/09 11:13:28;;;;;;;13.85;7.43;;;2.80;66.10;;;;;;4990366;28;20022;-65
2023/02/09 11:16:20;;;;;;;15.00;6.95;;;2.90;66.30;;;;;;4997553;28;20155;-65
2023/02/09 11:18:56;;;;;;;13.23;6.93;;;3.10;66.10;;;;;;4999315;28;20030;-65
2023/02/09 11:21:52;;;;;;;22.08;8.25;;;3.20;66.30;;;;;;4985321;28;20368;-65
2023/02/09 11:24:45;;;;;;;15.48;7.38;;;3.00;65.80;;;;;;4983956;28;20035;-64
2023/02/09 11:27:37;;;;;;;15.02;8.15;;;3.00;65.90;;;;;;4984860;28;20083;-64
2023/02/09 11:30:08;;;;;;;17.33;8.00;;;3.00;65.60;;;;;;4986573;28;20023;-65
2023/02/09 11:32:38;;;;;;;14.13;7.68;;;3.00;66.30;;;;;;4992481;28;20041;-66
2023/02/09 11:35:15;;;;;;;15.23;6.70;;;3.10;66.10;;;;;;4988096;28;20053;-64
2023/02/09 11:37:46;;;;;;;13.40;7.70;;;3.20;65.50;;;;;;4989651;28;20061;-64
2023/02/09 11:40:20;;;;;;;15.05;7.70;;;3.20;65.60;;;;;;4986216;28;20487;-65
2023/02/09 11:43:07;;;;;;;14.10;7.82;;;3.30;64.40;;;;;;4991591;28;20035;-64
2023/02/09 11:45:45;;;;;;;14.60;7.78;;;3.20;64.30;;;;;;4981959;28;20034;-65
2023/02/09 11:48:22;;;;;;;14.93;7.30;;;3.50;65.50;;;;;;4989848;28;20428;-64
2023/02/09 11:51:07;;;;;;;14.55;7.45;;;3.40;64.40;;;;;;4996237;28;20112;-65
2023/02/09 11:54:02;;;;;;;13.30;7.38;;;3.30;64.20;;;;;;4981587;28;20062;-65
2023/02/09 11:56:29;;;;;;;14.15;6.95;;;3.20;64.30;;;;;;4991213;28;20719;-67
2023/02/09 11:59:17;;;;;;;15.77;8.27;;;3.40;64.10;;;;;;4984239;28;20038;-65
2023/02/09 12:01:58;;;;;;;13.23;7.50;;;3.30;64.80;;;;;;4998371;28;20026;-66
2023/02/09 12:04:29;;;;;;;14.70;7.78;;;3.40;65.20;;;;;;4999608;28;20038;-65
2023/02/09 12:07:10;;;;;;;13.52;7.88;;;3.40;64.00;;;;;;5000379;28;20075;-66
2023/02/09 12:10:01;;;;;;;16.58;7.70;;;3.50;64.50;;;;;;4977191;28;20031;-64
2023/02/09 12:12:34;;;;;;;;;;;3.40;64.00;;;;;;4989150;28;20042;-65
2023/02/09 12:15:15;;;;;;;15.63;7.50;;;3.30;64.30;;;;;;4989719;28;19909;-65
2023/02/09 12:17:51;;;;;;;13.82;7.32;;;3.30;65.30;;;;;;4997069;28;20030;-64
2023/02/09 12:20:30;;;;;;;13.30;7.38;;;3.40;65.10;;;;;;5000001;28;20041;-65
2023/02/09 12:23:17;;;;;;;14.60;7.18;;;3.40;65.40;;;;;;4990272;28;20379;-65
2023/02/09 12:25:49;;;;;;;14.23;7.40;;;3.60;64.90;;;;;;4982822;28;20050;-65
2023/02/09 12:28:23;;;;;;;11.98;7.05;;;3.50;64.40;;;;;;5007018;28;20085;-65
2023/02/09 12:30:48;;;;;;;14.40;7.40;;;3.50;64.20;;;;;;4995785;28;20414;-64
2023/02/09 12:33:18;;;;;;;14.57;7.97;;;3.60;65.10;;;;;;4996283;28;20042;-64
2023/02/09 12:36:03;;;;;;;16.10;8.32;;;3.60;65.50;;;;;;5000121;28;20220;-64
2023/02/09 12:38:49;;;;;;;15.68;8.48;;;3.60;65.60;;;;;;4989461;28;20081;-64